createdAt,value
2022-12-25T00:00:20.391Z,90.80
2022-12-25T00:05:23.353Z,90.58
2022-12-25T00:10:25.903Z,90.90
2022-12-25T00:15:27.738Z,90.83
2022-12-25T00:20:29.580Z,90.89
2022-12-25T00:25:31.263Z,91.12
2022-12-25T00:30:32.969Z,91.49
2022-12-25T00:35:34.562Z,91.66
2022-12-25T00:40:44.143Z,91.86
2022-12-25T00:45:55.101Z,91.81
2022-12-25T00:50:58.763Z,92.63
2022-12-25T00:56:03.329Z,92.28
2022-12-25T01:01:05.052Z,92.31
2022-12-25T01:06:08.455Z,91.88
2022-12-25T01:11:10.296Z,92.37
2022-12-25T01:16:12.417Z,92.22
2022-12-25T01:21:17.816Z,92.08
2022-12-25T01:26:21.904Z,91.82
2022-12-25T01:31:24.574Z,91.73
2022-12-25T01:36:26.802Z,91.70
2022-12-25T01:41:28.427Z,91.50
2022-12-25T01:46:31.375Z,90.73
2022-12-25T01:51:37.005Z,91.19
2022-12-25T01:56:42.176Z,91.10
2022-12-25T02:01:44.280Z,91.55
2022-12-25T02:06:48.279Z,91.68
2022-12-25T02:11:59.075Z,91.70
2022-12-25T02:17:04.724Z,92.30
2022-12-25T02:22:34.984Z,92.75
2022-12-25T02:28:10.764Z,92.18
2022-12-25T02:33:41.533Z,93.02
2022-12-25T02:39:21.027Z,92.77
2022-12-25T02:44:43.905Z,92.90
2022-12-25T02:50:05.165Z,92.72
2022-12-25T02:55:30.790Z,93.18
2022-12-25T03:00:56.008Z,93.34
2022-12-25T03:06:20.566Z,93.13
2022-12-25T03:11:31.067Z,93.77
2022-12-25T03:16:51.414Z,93.71
2022-12-25T03:22:13.788Z,93.21
2022-12-25T03:27:16.306Z,93.32
2022-12-25T03:32:35.979Z,93.58
2022-12-25T03:38:09.345Z,93.81
2022-12-25T03:43:49.191Z,93.83
2022-12-25T03:49:17.958Z,93.69
2022-12-25T03:54:43.447Z,93.86
2022-12-25T04:00:03.689Z,93.90
2022-12-25T04:05:29.624Z,94.20
2022-12-25T04:10:49.601Z,95.70
2022-12-25T04:16:11.556Z,94.98
2022-12-25T04:21:31.968Z,95.61
2022-12-25T04:26:52.126Z,95.60
2022-12-25T04:32:15.258Z,94.78
2022-12-25T04:37:17.248Z,94.32
2022-12-25T04:42:19.300Z,94.43
2022-12-25T04:47:20.920Z,94.16
2022-12-25T04:52:22.584Z,94.44
2022-12-25T04:57:24.208Z,94.28
2022-12-25T05:02:26.407Z,94.09
2022-12-25T05:07:28.424Z,94.32
2022-12-25T05:12:30.042Z,94.18
2022-12-25T05:17:31.660Z,93.93
2022-12-25T05:22:33.464Z,94.13
2022-12-25T05:27:35.281Z,94.26
2022-12-25T05:32:36.902Z,94.26
2022-12-25T05:37:38.507Z,94.43
2022-12-25T05:42:40.088Z,94.71
2022-12-25T05:47:41.950Z,95.11
2022-12-25T05:52:44.713Z,94.93
2022-12-25T05:57:46.494Z,94.52
2022-12-25T06:02:48.315Z,94.96
2022-12-25T06:07:50.216Z,94.58
2022-12-25T06:12:51.808Z,96.95
2022-12-25T06:17:53.418Z,96.86
2022-12-25T06:22:55.059Z,96.74
2022-12-25T06:27:56.708Z,96.39
2022-12-25T06:33:01.815Z,95.98
2022-12-25T06:38:03.414Z,96.08
2022-12-25T06:43:05.074Z,96.00
2022-12-25T06:48:06.704Z,95.94
2022-12-25T06:53:08.327Z,96.02
2022-12-25T06:58:09.964Z,96.22
2022-12-25T07:03:19.139Z,96.12
2022-12-25T07:08:20.835Z,96.22
2022-12-25T07:13:22.426Z,96.02
2022-12-25T07:18:24.059Z,96.02
2022-12-25T07:23:26.924Z,98.52
2022-12-25T07:28:29.616Z,98.69
2022-12-25T07:33:31.833Z,100.00
2022-12-25T07:38:33.891Z,99.86
2022-12-25T07:43:35.783Z,98.82
2022-12-25T07:48:37.640Z,99.73
2022-12-25T07:53:39.709Z,99.38
2022-12-25T07:58:41.927Z,98.40
2022-12-25T08:03:44.499Z,98.58
2022-12-25T08:08:46.472Z,98.63
2022-12-25T08:13:48.132Z,98.48
2022-12-25T08:18:49.762Z,97.96
2022-12-25T08:23:51.408Z,98.64
2022-12-25T08:28:53.059Z,98.06
2022-12-25T08:33:57.710Z,98.69
2022-12-25T08:39:02.925Z,98.16
2022-12-25T08:44:06.389Z,98.36
2022-12-25T08:49:08.260Z,98.07
2022-12-25T08:54:09.876Z,97.97
2022-12-25T08:59:11.811Z,98.16
2022-12-25T09:04:13.442Z,98.78
2022-12-25T09:09:15.241Z,99.75
2022-12-25T09:14:16.848Z,99.60
2022-12-25T09:19:18.744Z,99.34
2022-12-25T09:24:20.935Z,99.69
2022-12-25T09:29:22.624Z,99.17
2022-12-25T09:34:24.221Z,98.99
2022-12-25T09:39:27.122Z,98.80
2022-12-25T09:44:33.018Z,98.65
2022-12-25T09:49:52.843Z,97.84
2022-12-25T09:55:19.651Z,97.63
2022-12-25T10:00:25.794Z,97.74
2022-12-25T10:05:48.072Z,97.35
2022-12-25T10:11:01.263Z,97.17
2022-12-25T10:16:24.321Z,96.92
2022-12-25T10:21:28.052Z,95.87
2022-12-25T10:26:31.705Z,95.28
2022-12-25T10:31:37.161Z,95.25
2022-12-25T10:36:38.902Z,94.78
2022-12-25T10:42:11.366Z,93.74
2022-12-25T10:47:30.377Z,93.57
2022-12-25T10:52:32.034Z,93.24
2022-12-25T10:57:45.509Z,93.81
2022-12-25T11:02:47.603Z,93.34
2022-12-25T11:07:56.099Z,92.63
2022-12-25T11:12:59.979Z,92.01
2022-12-25T11:18:02.301Z,89.92
2022-12-25T11:23:10.728Z,89.67
2022-12-25T11:28:13.438Z,88.19
2022-12-25T11:33:16.427Z,87.13
2022-12-25T11:38:18.253Z,87.14
2022-12-25T11:43:29.786Z,87.00
2022-12-25T11:48:41.490Z,87.45
2022-12-25T11:53:51.075Z,87.45
2022-12-25T11:59:02.703Z,87.64
2022-12-25T12:04:12.311Z,87.48
2022-12-25T12:09:42.168Z,86.67
2022-12-25T12:15:08.729Z,86.63
2022-12-25T12:20:26.358Z,86.63
2022-12-25T12:25:30.092Z,87.34
2022-12-25T12:30:35.524Z,87.20
2022-12-25T12:35:40.031Z,86.54
2022-12-25T12:40:51.789Z,86.13
2022-12-25T12:46:16.150Z,85.95
2022-12-25T12:51:35.500Z,87.16
2022-12-25T12:56:37.337Z,87.59
2022-12-25T13:01:47.999Z,87.53
2022-12-25T13:06:58.803Z,87.84
2022-12-25T13:12:06.622Z,88.05
2022-12-25T13:17:08.929Z,88.60
2022-12-25T13:22:31.279Z,88.95
2022-12-25T13:27:39.754Z,88.97
2022-12-25T13:32:43.019Z,89.68
2022-12-25T13:37:45.318Z,89.85
2022-12-25T13:42:49.297Z,89.99
2022-12-25T13:47:55.532Z,89.94
2022-12-25T13:53:10.596Z,90.71
2022-12-25T13:58:22.649Z,90.61
2022-12-25T14:03:24.365Z,90.73
2022-12-25T14:08:31.535Z,91.06
2022-12-25T14:13:39.790Z,91.02
2022-12-25T14:18:51.637Z,90.71
2022-12-25T14:23:53.578Z,90.91
2022-12-25T14:29:17.260Z,91.06
2022-12-25T14:34:24.474Z,91.34
2022-12-25T14:39:38.668Z,91.35
2022-12-25T14:44:41.037Z,91.44
2022-12-25T14:49:43.232Z,91.46
2022-12-25T14:54:48.110Z,91.41
2022-12-25T14:59:57.768Z,90.92
2022-12-25T15:04:59.426Z,90.41
2022-12-25T15:10:36.482Z,91.45
2022-12-25T15:15:22.828Z,92.18
2022-12-25T15:20:30.599Z,92.80
2022-12-25T15:25:32.508Z,93.39
2022-12-25T15:30:35.523Z,93.59
2022-12-25T15:35:39.002Z,94.17
2022-12-25T15:40:41.121Z,94.34
2022-12-25T15:45:42.827Z,94.74
2022-12-25T15:50:46.669Z,95.06
2022-12-25T15:55:49.411Z,95.81
2022-12-25T16:00:51.228Z,96.13
2022-12-25T16:05:53.032Z,96.10
2022-12-25T16:10:54.872Z,96.04
2022-12-25T16:15:57.365Z,96.00
2022-12-25T16:20:59.445Z,96.54
2022-12-25T16:26:01.094Z,96.97
2022-12-25T16:31:02.967Z,98.78
2022-12-25T16:36:04.887Z,100.00
2022-12-25T16:41:06.951Z,100.00
2022-12-25T16:46:10.914Z,100.00
2022-12-25T16:51:21.928Z,100.00
2022-12-25T16:56:28.348Z,100.00
2022-12-25T17:01:30.353Z,100.00
2022-12-25T17:06:32.392Z,100.00
2022-12-25T17:11:34.294Z,100.00
2022-12-25T17:16:37.916Z,100.00
2022-12-25T17:21:39.675Z,100.00
2022-12-25T17:26:42.013Z,100.00
2022-12-25T17:31:43.843Z,100.00
2022-12-25T17:36:45.744Z,100.00
2022-12-25T17:41:52.113Z,100.00
2022-12-25T17:46:53.857Z,100.00
2022-12-25T17:51:55.838Z,100.00
2022-12-25T17:56:57.504Z,100.00
2022-12-25T18:01:59.436Z,100.00
2022-12-25T18:07:01.166Z,100.00
2022-12-25T18:12:03.063Z,100.00
2022-12-25T18:17:04.679Z,100.00
2022-12-25T18:22:06.392Z,100.00
2022-12-25T18:27:08.107Z,100.00
2022-12-25T18:32:09.861Z,100.00
2022-12-25T18:37:11.482Z,100.00
2022-12-25T18:42:31.663Z,100.00
2022-12-25T18:47:33.730Z,100.00
2022-12-25T18:52:49.712Z,100.00
2022-12-25T18:57:53.620Z,100.00
2022-12-25T19:02:58.372Z,100.00
2022-12-25T19:08:00.233Z,100.00
2022-12-25T19:13:01.880Z,100.00
2022-12-25T19:18:03.637Z,100.00
2022-12-25T19:23:05.618Z,100.00
2022-12-25T19:28:07.242Z,100.00
2022-12-25T19:33:17.250Z,100.00
2022-12-25T19:38:20.232Z,100.00
2022-12-25T19:43:21.883Z,100.00
2022-12-25T19:48:24.154Z,100.00
2022-12-25T19:53:26.020Z,100.00
2022-12-25T19:58:27.780Z,100.00
2022-12-25T20:03:29.505Z,100.00
2022-12-25T20:08:31.764Z,100.00
2022-12-25T20:13:33.359Z,100.00
2022-12-25T20:18:35.070Z,100.00
2022-12-25T20:23:37.062Z,100.00
2022-12-25T20:28:41.659Z,100.00
2022-12-25T20:33:43.643Z,100.00
2022-12-25T20:38:45.585Z,100.00
2022-12-25T20:43:47.737Z,100.00
2022-12-25T20:48:49.584Z,100.00
2022-12-25T20:53:52.223Z,100.00
2022-12-25T20:58:55.812Z,100.00
2022-12-25T21:03:58.469Z,100.00
2022-12-25T21:09:00.212Z,100.00
2022-12-25T21:14:01.813Z,100.00
2022-12-25T21:19:03.709Z,100.00
2022-12-25T21:24:05.561Z,100.00
2022-12-25T21:29:07.629Z,100.00
2022-12-25T21:34:09.253Z,100.00
2022-12-25T21:39:11.485Z,100.00
2022-12-25T21:44:13.302Z,100.00
2022-12-25T21:49:34.859Z,100.00
2022-12-25T21:54:36.772Z,100.00
2022-12-25T21:59:38.498Z,100.00
2022-12-25T22:04:40.182Z,100.00
2022-12-25T22:09:44.137Z,100.00
2022-12-25T22:14:56.673Z,100.00
2022-12-25T22:19:59.144Z,100.00
2022-12-25T22:25:02.660Z,100.00
2022-12-25T22:30:09.408Z,100.00
2022-12-25T22:35:12.425Z,100.00
2022-12-25T22:40:16.876Z,100.00
2022-12-25T22:45:18.705Z,100.00
2022-12-25T22:50:20.744Z,100.00
2022-12-25T22:55:22.645Z,100.00
2022-12-25T23:00:24.370Z,100.00
2022-12-25T23:05:26.003Z,100.00
2022-12-25T23:10:28.051Z,100.00
2022-12-25T23:15:30.044Z,100.00
2022-12-25T23:20:51.156Z,100.00
2022-12-25T23:26:08.012Z,100.00
2022-12-25T23:31:09.842Z,100.00
2022-12-25T23:36:11.719Z,100.00
2022-12-25T23:41:13.470Z,100.00
2022-12-25T23:46:15.377Z,100.00
2022-12-25T23:51:17.035Z,100.00
2022-12-25T23:56:18.755Z,100.00
